createdAt,value
2023-02-19T00:01:52.223Z,99823.48
2023-02-19T00:04:24.626Z,99818.81
2023-02-19T00:06:52.770Z,99815.52
2023-02-19T00:09:21.804Z,99812.91
2023-02-19T00:11:50.093Z,99816.52
2023-02-19T00:14:21.713Z,99817.90
2023-02-19T00:16:50.118Z,99815.52
2023-02-19T00:19:20.952Z,99816.91
2023-02-19T00:21:52.691Z,99821.77
2023-02-19T00:24:22.059Z,99820.52
2023-02-19T00:26:50.526Z,99819.13
2023-02-19T00:29:21.189Z,99818.55
2023-02-19T00:31:49.442Z,99820.76
2023-02-19T00:34:17.762Z,99819.20
2023-02-19T00:36:48.222Z,99815.20
2023-02-19T00:39:23.414Z,99811.56
2023-02-19T00:42:25.035Z,99805.42
2023-02-19T00:45:03.391Z,99808.55
2023-02-19T00:47:35.183Z,99810.71
2023-02-19T00:50:11.112Z,99814.02
2023-02-19T00:52:40.410Z,99821.46
2023-02-19T00:55:09.480Z,99822.48
2023-02-19T00:57:37.653Z,99820.77
2023-02-19T01:00:06.891Z,99819.38
2023-02-19T01:02:35.022Z,99815.90
2023-02-19T01:05:03.197Z,99817.61
2023-02-19T01:07:31.308Z,99817.13
2023-02-19T01:09:59.487Z,99817.29
2023-02-19T01:12:28.358Z,99819.03
2023-02-19T01:14:56.474Z,99822.30
2023-02-19T01:17:24.995Z,99820.20
2023-02-19T01:19:53.383Z,99821.74
2023-02-19T01:22:21.488Z,99825.05
2023-02-19T01:24:49.652Z,99824.90
2023-02-19T01:27:17.805Z,99817.64
2023-02-19T01:29:45.904Z,99808.92
2023-02-19T01:32:14.103Z,99811.52
2023-02-19T01:34:42.280Z,99806.64
2023-02-19T01:37:12.222Z,99799.79
2023-02-19T01:39:40.303Z,99795.97
2023-02-19T01:42:14.586Z,99793.23
2023-02-19T01:44:42.723Z,99792.88
2023-02-19T01:47:11.756Z,99787.13
2023-02-19T01:49:50.778Z,99790.23
2023-02-19T01:52:36.052Z,99791.38
2023-02-19T01:55:08.884Z,99789.05
2023-02-19T01:57:42.907Z,99785.91
2023-02-19T02:00:14.258Z,99785.39
2023-02-19T02:02:45.297Z,99772.91
2023-02-19T02:05:35.237Z,99772.23
2023-02-19T02:08:23.118Z,99770.83
2023-02-19T02:10:52.495Z,99765.29
2023-02-19T02:13:21.251Z,99759.23
2023-02-19T02:15:59.306Z,99758.92
2023-02-19T02:19:18.278Z,99761.19
2023-02-19T02:22:04.508Z,99758.46
2023-02-19T02:25:09.712Z,99754.52
2023-02-19T02:28:07.175Z,99757.09
2023-02-19T02:30:59.400Z,99752.73
2023-02-19T02:33:48.225Z,99750.84
2023-02-19T02:36:24.788Z,99754.63
2023-02-19T02:38:54.667Z,99755.63
2023-02-19T02:41:23.574Z,99754.92
2023-02-19T02:43:51.609Z,99757.98
2023-02-19T02:46:26.852Z,99754.66
2023-02-19T02:49:02.864Z,99748.96
2023-02-19T02:51:34.755Z,99749.23
2023-02-19T02:54:25.854Z,99745.09
2023-02-19T02:56:56.370Z,99745.25
2023-02-19T02:59:28.678Z,99745.57
2023-02-19T03:02:19.321Z,99743.64
2023-02-19T03:05:06.464Z,99743.27
2023-02-19T03:07:44.083Z,99743.61
2023-02-19T03:10:18.733Z,99741.72
2023-02-19T03:13:09.758Z,99739.15
2023-02-19T03:16:02.578Z,99737.39
2023-02-19T03:18:52.410Z,99743.23
2023-02-19T03:21:23.113Z,99746.30
2023-02-19T03:24:11.327Z,99748.00
2023-02-19T03:26:42.677Z,99750.27
2023-02-19T03:29:39.285Z,99748.71
2023-02-19T03:32:54.913Z,99750.80
2023-02-19T03:35:27.383Z,99753.37
2023-02-19T03:38:00.418Z,99753.29
2023-02-19T03:40:34.640Z,99754.91
2023-02-19T03:43:18.061Z,99757.38
2023-02-19T03:45:56.304Z,99752.80
2023-02-19T03:48:59.443Z,99752.38
2023-02-19T03:51:42.882Z,99755.70
2023-02-19T03:54:19.299Z,99759.67
2023-02-19T03:57:07.465Z,99762.27
2023-02-19T04:00:12.486Z,99761.05
2023-02-19T04:02:43.877Z,99759.41
2023-02-19T04:05:19.085Z,99757.88
2023-02-19T04:07:51.581Z,99758.68
2023-02-19T04:10:21.218Z,99758.29
2023-02-19T04:12:56.810Z,99759.95
2023-02-19T04:15:30.150Z,99755.07
2023-02-19T04:18:07.492Z,99758.05
2023-02-19T04:20:42.693Z,99756.36
2023-02-19T04:23:12.380Z,99752.62
2023-02-19T04:25:44.177Z,99751.25
2023-02-19T04:28:14.569Z,99747.39
2023-02-19T04:30:43.851Z,99757.25
2023-02-19T04:33:12.111Z,99757.27
2023-02-19T04:35:40.190Z,99754.73
2023-02-19T04:38:08.266Z,99756.98
2023-02-19T04:40:36.317Z,99758.97
2023-02-19T04:43:04.349Z,99760.92
2023-02-19T04:45:32.483Z,99757.06
2023-02-19T04:48:00.561Z,99758.73
2023-02-19T04:50:28.766Z,99762.59
2023-02-19T04:52:56.873Z,99760.65
2023-02-19T04:55:25.119Z,99759.26
2023-02-19T04:57:53.182Z,99754.44
2023-02-19T05:00:21.508Z,99751.30
2023-02-19T05:02:49.569Z,99753.52
2023-02-19T05:05:17.724Z,99756.94
2023-02-19T05:07:45.934Z,99752.44
2023-02-19T05:10:14.026Z,99753.02
2023-02-19T05:12:42.369Z,99753.41
2023-02-19T05:15:10.433Z,99754.63
2023-02-19T05:17:38.490Z,99758.08
2023-02-19T05:20:07.001Z,99751.23
2023-02-19T05:22:35.030Z,99757.13
2023-02-19T05:25:04.621Z,99757.49
2023-02-19T05:27:32.710Z,99758.20
2023-02-19T05:30:01.157Z,99761.48
2023-02-19T05:32:29.240Z,99760.97
2023-02-19T05:34:57.445Z,99761.96
2023-02-19T05:37:25.471Z,99763.66
2023-02-19T05:39:53.559Z,99773.71
2023-02-19T05:42:21.621Z,99778.26
2023-02-19T05:44:49.627Z,99779.66
2023-02-19T05:47:17.725Z,99779.83
2023-02-19T05:49:45.952Z,99777.05
2023-02-19T05:52:14.710Z,99780.61
2023-02-19T05:54:42.741Z,99780.80
2023-02-19T05:57:10.819Z,99782.87
2023-02-19T05:59:38.860Z,99783.55
2023-02-19T06:02:06.913Z,99789.79
2023-02-19T06:04:34.978Z,99792.54
2023-02-19T06:07:03.079Z,99794.55
2023-02-19T06:09:32.438Z,99800.89
2023-02-19T06:12:00.627Z,99800.22
2023-02-19T06:14:28.665Z,99799.61
2023-02-19T06:16:56.814Z,99798.98
2023-02-19T06:19:24.975Z,99802.67
2023-02-19T06:21:53.203Z,99802.14
2023-02-19T06:24:21.313Z,99804.91
2023-02-19T06:26:49.437Z,99804.02
2023-02-19T06:29:17.705Z,99806.40
2023-02-19T06:31:45.816Z,99815.05
2023-02-19T06:34:14.114Z,99818.38
2023-02-19T06:36:42.174Z,99814.89
2023-02-19T06:39:10.612Z,99820.73
2023-02-19T06:41:38.978Z,99823.39
2023-02-19T06:44:07.062Z,99826.79
2023-02-19T06:46:35.802Z,99824.52
2023-02-19T06:49:04.949Z,99826.39
2023-02-19T06:51:33.376Z,99826.11
2023-02-19T06:54:02.594Z,99829.09
2023-02-19T06:56:35.582Z,99830.59
2023-02-19T06:59:07.549Z,99837.59
2023-02-19T07:01:37.204Z,99838.48
2023-02-19T07:04:06.318Z,99839.33
2023-02-19T07:06:35.587Z,99840.25
2023-02-19T07:09:05.474Z,99846.48
2023-02-19T07:11:35.186Z,99849.43
2023-02-19T07:14:07.848Z,99850.79
2023-02-19T07:16:37.244Z,99854.06
2023-02-19T07:19:05.332Z,99854.20
2023-02-19T07:21:37.866Z,99860.62
2023-02-19T07:24:06.782Z,99863.63
2023-02-19T07:26:35.865Z,99864.20
2023-02-19T07:29:04.498Z,99870.46
2023-02-19T07:31:32.668Z,99876.36
2023-02-19T07:34:00.758Z,99887.63
2023-02-19T07:36:28.919Z,99897.63
2023-02-19T07:38:58.484Z,99901.39
2023-02-19T07:41:27.718Z,99898.02
2023-02-19T07:43:55.828Z,99898.29
2023-02-19T07:46:25.037Z,99903.87
2023-02-19T07:48:53.072Z,99906.13
2023-02-19T07:51:21.648Z,99907.67
2023-02-19T07:53:50.804Z,99913.45
2023-02-19T07:56:20.742Z,99916.63
2023-02-19T07:58:48.896Z,99919.79
2023-02-19T08:01:41.902Z,99918.31
2023-02-19T08:04:12.164Z,99917.54
2023-02-19T08:06:41.079Z,99926.16
2023-02-19T08:09:09.719Z,99919.33
2023-02-19T08:11:56.535Z,99921.25
2023-02-19T08:14:26.535Z,99925.89
2023-02-19T08:16:54.965Z,99927.90
2023-02-19T08:19:23.528Z,99928.75
2023-02-19T08:21:51.887Z,99941.34
2023-02-19T08:24:19.978Z,99944.06
2023-02-19T08:26:48.093Z,99945.91
2023-02-19T08:29:16.316Z,99951.39
2023-02-19T08:31:44.611Z,99952.85
2023-02-19T08:34:12.867Z,99960.29
2023-02-19T08:36:40.997Z,99963.40
2023-02-19T08:39:09.030Z,99959.65
2023-02-19T08:41:37.194Z,99970.46
2023-02-19T08:44:05.420Z,99971.21
2023-02-19T08:46:34.510Z,99972.98
2023-02-19T08:49:02.894Z,99979.66
2023-02-19T08:51:31.595Z,99979.85
2023-02-19T08:54:03.855Z,99981.60
2023-02-19T08:56:32.147Z,99985.39
2023-02-19T08:59:00.179Z,99993.58
2023-02-19T09:01:28.326Z,99993.61
2023-02-19T09:03:56.579Z,99999.67
2023-02-19T09:06:24.670Z,100007.91
2023-02-19T09:08:52.779Z,100007.99
2023-02-19T09:11:20.949Z,100004.92
2023-02-19T09:13:49.072Z,100002.58
2023-02-19T09:16:17.212Z,100008.90
2023-02-19T09:18:45.996Z,100007.98
2023-02-19T09:21:14.211Z,100013.88
2023-02-19T09:23:42.495Z,100017.10
2023-02-19T09:26:11.662Z,100024.27
2023-02-19T09:28:42.060Z,100029.00
2023-02-19T09:31:16.711Z,100034.42
2023-02-19T09:33:46.533Z,100044.83
2023-02-19T09:36:16.473Z,100036.91
2023-02-19T09:38:44.650Z,100044.59
2023-02-19T09:41:25.079Z,100048.46
2023-02-19T09:43:53.332Z,100056.77
2023-02-19T09:46:38.106Z,100059.09
2023-02-19T09:49:15.698Z,100062.77
2023-02-19T09:51:51.428Z,100062.55
2023-02-19T09:54:29.180Z,100069.33
2023-02-19T09:57:00.375Z,100070.83
2023-02-19T09:59:44.807Z,100067.77
2023-02-19T10:02:22.227Z,100072.84
2023-02-19T10:04:52.343Z,100073.36
2023-02-19T10:07:22.849Z,100077.00
2023-02-19T10:10:22.820Z,100078.08
2023-02-19T10:12:52.460Z,100077.83
2023-02-19T10:15:32.405Z,100080.37
2023-02-19T10:18:00.505Z,100087.24
2023-02-19T10:20:28.698Z,100092.14
2023-02-19T10:23:04.292Z,100096.43
2023-02-19T10:25:34.376Z,100103.61
2023-02-19T10:28:03.631Z,100114.80
2023-02-19T10:30:35.852Z,100115.14
2023-02-19T10:33:11.531Z,100117.27
2023-02-19T10:35:52.134Z,100117.85
2023-02-19T10:38:23.821Z,100123.73
2023-02-19T10:41:12.732Z,100128.68
2023-02-19T10:43:45.835Z,100126.30
2023-02-19T10:46:30.198Z,100138.47
2023-02-19T10:49:06.097Z,100142.62
2023-02-19T10:51:40.577Z,100148.13
2023-02-19T10:54:25.648Z,100148.05
2023-02-19T10:56:54.683Z,100152.28
2023-02-19T10:59:27.720Z,100156.24
2023-02-19T11:02:01.718Z,100158.58
2023-02-19T11:04:35.344Z,100163.25
2023-02-19T11:07:11.688Z,100162.84
2023-02-19T11:09:43.398Z,100163.61
2023-02-19T11:12:14.231Z,100166.70
2023-02-19T11:14:45.685Z,100168.67
2023-02-19T11:17:30.700Z,100172.94
2023-02-19T11:20:05.429Z,100172.92
2023-02-19T11:22:33.691Z,100174.79
2023-02-19T11:25:07.056Z,100174.20
2023-02-19T11:27:35.378Z,100174.49
2023-02-19T11:30:35.248Z,100173.52
2023-02-19T11:33:20.107Z,100174.36
2023-02-19T11:36:11.797Z,100177.71
2023-02-19T11:38:40.006Z,100182.88
2023-02-19T11:41:31.251Z,100184.15
2023-02-19T11:44:07.831Z,100189.89
2023-02-19T11:46:41.667Z,100198.74
2023-02-19T11:49:41.063Z,100204.87
2023-02-19T11:52:33.798Z,100211.39
2023-02-19T11:55:17.165Z,100217.60
2023-02-19T11:58:11.879Z,100219.73
2023-02-19T12:01:14.473Z,100222.83
2023-02-19T12:04:00.537Z,100234.27
2023-02-19T12:06:28.650Z,100237.89
2023-02-19T12:09:23.140Z,100242.51
2023-02-19T12:12:00.403Z,100248.19
2023-02-19T12:14:53.480Z,100252.88
2023-02-19T12:17:36.272Z,100257.06
2023-02-19T12:21:21.234Z,100263.69
2023-02-19T12:24:23.048Z,100259.08
2023-02-19T12:27:08.886Z,100243.44
2023-02-19T12:29:50.641Z,100268.11
2023-02-19T12:32:40.691Z,100276.48
2023-02-19T12:35:17.095Z,100281.29
2023-02-19T12:38:12.196Z,100283.59
2023-02-19T12:40:55.552Z,100286.45
2023-02-19T12:43:24.687Z,100286.23
2023-02-19T12:46:02.025Z,100283.36
2023-02-19T12:48:41.426Z,100285.33
2023-02-19T12:51:26.736Z,100274.35
2023-02-19T12:54:01.326Z,100286.52
2023-02-19T12:56:32.128Z,100293.66
2023-02-19T12:59:35.636Z,100298.98
2023-02-19T13:02:18.302Z,100295.40
2023-02-19T13:05:19.607Z,100294.83
2023-02-19T13:08:07.934Z,100311.52
2023-02-19T13:11:00.202Z,100309.30
2023-02-19T13:13:38.787Z,100314.80
2023-02-19T13:16:15.103Z,100320.17
2023-02-19T13:18:52.112Z,100317.40
2023-02-19T13:21:43.902Z,100322.05
2023-02-19T13:24:17.625Z,100320.38
2023-02-19T13:26:49.401Z,100322.48
2023-02-19T13:29:44.357Z,100323.18
2023-02-19T13:32:31.427Z,100326.21
2023-02-19T13:35:27.408Z,100325.24
2023-02-19T13:38:08.850Z,100322.03
2023-02-19T13:40:42.397Z,100324.89
2023-02-19T13:43:28.581Z,100328.61
2023-02-19T13:46:00.568Z,100338.53
2023-02-19T13:48:31.952Z,100341.23
2023-02-19T13:51:24.539Z,100335.98
2023-02-19T13:54:00.473Z,100337.77
2023-02-19T13:57:12.515Z,100333.91
2023-02-19T13:59:41.033Z,100335.80
2023-02-19T14:02:11.545Z,100339.14
2023-02-19T14:04:54.638Z,100341.05
2023-02-19T14:07:49.534Z,100343.94
2023-02-19T14:10:57.727Z,100351.92
2023-02-19T14:13:47.916Z,100353.36
2023-02-19T14:16:39.114Z,100352.84
2023-02-19T14:19:41.796Z,100357.44
2023-02-19T14:22:55.577Z,100365.91
2023-02-19T14:25:53.450Z,100365.73
2023-02-19T14:28:36.360Z,100370.54
2023-02-19T14:31:32.618Z,100378.08
2023-02-19T14:34:22.932Z,100383.96
2023-02-19T14:36:59.087Z,100386.63
2023-02-19T14:39:35.348Z,100386.89
2023-02-19T14:42:18.479Z,100389.54
2023-02-19T14:44:52.162Z,100387.77
2023-02-19T14:47:23.553Z,100392.59
2023-02-19T14:49:57.974Z,100386.36
2023-02-19T14:52:43.808Z,100388.23
2023-02-19T14:55:26.041Z,100389.33
2023-02-19T14:58:05.936Z,100395.28
2023-02-19T15:00:37.985Z,100391.82
2023-02-19T15:03:23.451Z,100391.09
2023-02-19T15:06:00.203Z,100389.35
2023-02-19T15:08:36.125Z,100393.23
2023-02-19T15:11:10.767Z,100393.64
2023-02-19T15:13:45.782Z,100403.23
2023-02-19T15:16:23.671Z,100398.11
2023-02-19T15:18:55.610Z,100394.27
2023-02-19T15:21:32.776Z,100393.70
2023-02-19T15:24:03.937Z,100402.30
2023-02-19T15:26:41.147Z,100405.02
2023-02-19T15:29:18.722Z,100410.46
2023-02-19T15:31:59.042Z,100416.37
2023-02-19T15:34:32.585Z,100418.27
2023-02-19T15:37:06.565Z,100418.27
2023-02-19T15:39:48.462Z,100414.59
2023-02-19T15:42:28.567Z,100421.25
2023-02-19T15:44:57.342Z,100415.36
2023-02-19T15:47:37.467Z,100423.17
2023-02-19T15:50:12.125Z,100428.63
2023-02-19T15:53:04.927Z,100433.20
2023-02-19T15:55:45.722Z,100437.29
2023-02-19T15:58:20.055Z,100438.04
2023-02-19T16:00:57.246Z,100440.83
2023-02-19T16:03:27.531Z,100445.27
2023-02-19T16:06:17.086Z,100445.39
2023-02-19T16:09:06.617Z,100442.05
2023-02-19T16:11:35.116Z,100446.66
2023-02-19T16:14:37.275Z,100449.12
2023-02-19T16:17:10.957Z,100454.09
2023-02-19T16:20:00.898Z,100468.50
2023-02-19T16:22:32.064Z,100473.19
2023-02-19T16:25:06.054Z,100476.98
2023-02-19T16:27:38.753Z,100483.10
2023-02-19T16:30:28.796Z,100484.67
2023-02-19T16:33:22.091Z,100490.43
2023-02-19T16:35:52.635Z,100482.70
2023-02-19T16:38:21.174Z,100477.83
2023-02-19T16:40:49.366Z,100482.60
2023-02-19T16:43:38.449Z,100482.36
2023-02-19T16:46:10.269Z,100487.39
2023-02-19T16:48:38.749Z,100488.98
2023-02-19T16:51:08.276Z,100492.88
2023-02-19T16:53:36.436Z,100494.27
2023-02-19T16:56:04.816Z,100494.63
2023-02-19T16:58:32.942Z,100490.41
2023-02-19T17:01:01.982Z,100489.97
2023-02-19T17:03:30.664Z,100496.27
2023-02-19T17:05:58.981Z,100495.48
2023-02-19T17:08:34.589Z,100496.77
2023-02-19T17:11:11.367Z,100503.05
2023-02-19T17:13:40.183Z,100502.42
2023-02-19T17:16:11.304Z,100499.05
2023-02-19T17:18:39.526Z,100501.23
2023-02-19T17:21:17.528Z,100507.96
2023-02-19T17:23:46.156Z,100508.90
2023-02-19T17:26:16.881Z,100509.29
2023-02-19T17:28:45.258Z,100504.23
2023-02-19T17:31:14.718Z,100509.33
2023-02-19T17:33:43.904Z,100517.55
2023-02-19T17:36:21.701Z,100521.20
2023-02-19T17:38:49.802Z,100519.84
2023-02-19T17:41:18.136Z,100533.06
2023-02-19T17:43:47.666Z,100537.29
2023-02-19T17:46:17.376Z,100529.98
2023-02-19T17:48:45.958Z,100530.52
2023-02-19T17:51:15.028Z,100534.10
2023-02-19T17:53:43.622Z,100532.65
2023-02-19T17:56:16.866Z,100534.98
2023-02-19T17:58:45.871Z,100537.66
2023-02-19T18:01:14.477Z,100537.76
2023-02-19T18:03:43.046Z,100532.84
2023-02-19T18:06:11.425Z,100526.00
2023-02-19T18:08:39.520Z,100529.09
2023-02-19T18:11:08.243Z,100522.22
2023-02-19T18:13:36.470Z,100524.39
2023-02-19T18:16:06.029Z,100527.36
2023-02-19T18:18:34.199Z,100529.60
2023-02-19T18:21:02.817Z,100530.94
2023-02-19T18:23:30.892Z,100529.98
2023-02-19T18:26:00.561Z,100526.41
2023-02-19T18:28:29.003Z,100525.48
2023-02-19T18:30:57.483Z,100525.48
2023-02-19T18:33:25.697Z,100531.10
2023-02-19T18:35:54.148Z,100529.30
2023-02-19T18:38:22.551Z,100535.04
2023-02-19T18:40:50.622Z,100535.63
2023-02-19T18:43:19.152Z,100538.29
2023-02-19T18:45:48.869Z,100540.88
2023-02-19T18:48:17.543Z,100546.41
2023-02-19T18:50:45.915Z,100543.65
2023-02-19T18:53:14.407Z,100535.43
2023-02-19T18:55:42.711Z,100532.60
2023-02-19T18:58:10.976Z,100532.75
2023-02-19T19:00:39.915Z,100536.11
2023-02-19T19:03:54.655Z,100524.90
2023-02-19T19:06:25.985Z,100541.63
2023-02-19T19:08:54.324Z,100540.77
2023-02-19T19:11:22.861Z,100542.41
2023-02-19T19:13:51.433Z,100541.48
2023-02-19T19:16:24.332Z,100542.27
2023-02-19T19:18:53.776Z,100542.80
2023-02-19T19:21:23.269Z,100539.52
2023-02-19T19:23:51.820Z,100535.17
2023-02-19T19:26:20.683Z,100530.35
2023-02-19T19:28:48.813Z,100532.70
2023-02-19T19:31:21.340Z,100536.33
2023-02-19T19:33:49.576Z,100537.31
2023-02-19T19:36:23.212Z,100534.77
2023-02-19T19:38:52.213Z,100533.08
2023-02-19T19:41:21.115Z,100535.52
2023-02-19T19:43:49.234Z,100531.73
2023-02-19T19:46:20.061Z,100526.75
2023-02-19T19:48:50.281Z,100530.83
2023-02-19T19:51:19.062Z,100525.12
2023-02-19T19:53:49.149Z,100523.38
2023-02-19T19:56:17.661Z,100530.30
2023-02-19T19:58:47.728Z,100533.58
2023-02-19T20:01:21.070Z,100542.48
2023-02-19T20:03:51.217Z,100547.70
2023-02-19T20:06:26.937Z,100545.08
2023-02-19T20:08:55.596Z,100546.30
2023-02-19T20:11:24.095Z,100552.59
2023-02-19T20:13:52.188Z,100556.56
2023-02-19T20:16:25.711Z,100551.66
2023-02-19T20:18:53.997Z,100551.85
2023-02-19T20:21:22.773Z,100555.41
2023-02-19T20:23:51.080Z,100558.89
2023-02-19T20:26:24.608Z,100560.23
2023-02-19T20:28:53.656Z,100559.67
2023-02-19T20:31:22.786Z,100560.66
2023-02-19T20:33:51.345Z,100562.35
2023-02-19T20:36:22.623Z,100566.84
2023-02-19T20:38:51.143Z,100573.52
2023-02-19T20:41:19.303Z,100569.60
2023-02-19T20:43:47.619Z,100567.79
2023-02-19T20:46:15.963Z,100574.56
2023-02-19T20:48:44.807Z,100575.57
2023-02-19T20:51:13.093Z,100576.42
2023-02-19T20:53:41.939Z,100577.59
2023-02-19T20:56:11.665Z,100570.42
2023-02-19T20:58:43.496Z,100567.71
2023-02-19T21:01:12.286Z,100570.13
2023-02-19T21:03:40.687Z,100569.18
2023-02-19T21:06:08.825Z,100566.50
2023-02-19T21:08:37.054Z,100561.71
2023-02-19T21:11:05.378Z,100560.63
2023-02-19T21:13:35.177Z,100558.52
2023-02-19T21:16:03.815Z,100559.89
2023-02-19T21:18:31.935Z,100561.56
2023-02-19T21:21:00.057Z,100556.85
2023-02-19T21:23:28.895Z,100561.41
2023-02-19T21:25:57.269Z,100549.32
2023-02-19T21:28:25.274Z,100541.39
2023-02-19T21:30:53.584Z,100539.75
2023-02-19T21:33:21.678Z,100543.39
2023-02-19T21:35:49.679Z,100541.64
2023-02-19T21:38:18.341Z,100542.43
2023-02-19T21:40:46.405Z,100540.56
2023-02-19T21:43:14.564Z,100540.79
2023-02-19T21:45:43.207Z,100544.46
2023-02-19T21:48:11.353Z,100539.64
2023-02-19T21:50:40.461Z,100544.86
2023-02-19T21:53:08.476Z,100548.88
2023-02-19T21:55:38.548Z,100549.41
2023-02-19T21:58:07.764Z,100548.20
2023-02-19T22:00:36.154Z,100547.80
2023-02-19T22:03:04.313Z,100535.83
2023-02-19T22:05:33.152Z,100534.05
2023-02-19T22:08:01.859Z,100530.48
2023-02-19T22:10:30.128Z,100530.55
2023-02-19T22:12:58.337Z,100527.61
2023-02-19T22:15:26.464Z,100523.84
2023-02-19T22:17:54.681Z,100524.27
2023-02-19T22:20:22.817Z,100523.10
2023-02-19T22:22:50.944Z,100513.77
2023-02-19T22:25:19.238Z,100505.33
2023-02-19T22:27:49.001Z,100502.13
2023-02-19T22:30:17.451Z,100495.91
2023-02-19T22:32:45.700Z,100499.74
2023-02-19T22:35:15.770Z,100501.52
2023-02-19T22:37:44.113Z,100512.00
2023-02-19T22:40:12.798Z,100513.95
2023-02-19T22:42:40.951Z,100507.13
2023-02-19T22:45:12.012Z,100505.73
2023-02-19T22:47:40.482Z,100501.33
2023-02-19T22:50:09.172Z,100500.58
2023-02-19T22:52:37.339Z,100496.57
2023-02-19T22:55:05.776Z,100490.63
2023-02-19T22:57:34.145Z,100500.74
2023-02-19T23:00:04.686Z,100506.42
2023-02-19T23:02:33.025Z,100506.98
2023-02-19T23:05:01.252Z,100512.02
2023-02-19T23:07:29.696Z,100504.30
2023-02-19T23:10:00.115Z,100505.00
2023-02-19T23:12:32.308Z,100500.64
2023-02-19T23:15:01.546Z,100498.70
2023-02-19T23:17:30.584Z,100498.26
2023-02-19T23:19:58.857Z,100495.27
2023-02-19T23:22:28.342Z,100502.36
2023-02-19T23:24:56.563Z,100497.63
2023-02-19T23:27:26.886Z,100489.27
2023-02-19T23:29:56.539Z,100485.83
2023-02-19T23:32:24.880Z,100493.00
2023-02-19T23:34:53.035Z,100493.99
2023-02-19T23:37:21.123Z,100495.64
2023-02-19T23:39:49.312Z,100495.79
2023-02-19T23:42:17.476Z,100503.52
2023-02-19T23:44:49.117Z,100500.22
2023-02-19T23:47:18.353Z,100499.59
2023-02-19T23:49:46.490Z,100493.09
2023-02-19T23:52:14.639Z,100489.67
2023-02-19T23:54:42.788Z,100483.78
2023-02-19T23:57:10.939Z,100476.89
2023-02-19T23:59:39.073Z,100479.08
